Charleroi, Belgium

4:31 PM CET on January 16, 2017 (GMT +0100)
Brussels South | | Change Station

Elev 630 ft 50.47 °N, 4.45 °E | Updated 11 minutes ago

Mostly Cloudy
Mostly Cloudy
32 °F
Feels Like 25 °F
N
8
Wind Variable Wind from ENE

Today
High -- | Low -- °F
--% Chance of Precip.
Yesterday
High -- | Low -- °F
Precip. -- in
Pressure 30.33 in
Visibility 5.6 miles
Clouds Few 1000 ft
Mostly Cloudy 1400 ft
Windchill 25 °F
Dew Point 28 °F
Humidity 87%
Rainfall 0.00 in
Snow Depth Not available.
8:35 AM 5:08 PM
Waning Gibbous, 80% visible
METAR EBCI 161520Z 06007KT 9000 FEW010 BKN014 00/M02 Q1027 NOSIG
Pressure 30.33 in
Visibility 5.6 miles
Clouds Few 1000 ft
Mostly Cloudy 1400 ft
Windchill 25 °F
Dew Point 28 °F
Humidity 87%
Rainfall 0.00 in
Snow Depth Not available.
8:35 AM 5:08 PM
Waning Gibbous, 80% visible
METAR EBCI 161520Z 06007KT 9000 FEW010 BKN014 00/M02 Q1027 NOSIG

Get Your Daily Forecast Email!

Thanks for signing up!

Be on the lookout for a verification email in your inbox.

You'll start receiving the daily forecast at 8 AM.

×

10-Day Weather Forecast

×

Almanac

Astronomy

Jan. 16, 2017 Rise Set
Actual Time
Civil Twilight
Nautical Twilight
Astronomical Twilight
Moon
Length of Visible Light
Length of Day
Tomorrow will be .
, % of the Moon is Illuminated

Today's Extremes

Country Highs Country Lows

Community

WunderPhotos

Upload Photos

1,962,540 photos uploaded!

WunderBlog® & News

Nearby

Air Quality

  Air Quality AQ Index Pollutant
Not available.

Snow Depth

Station Depth Elevation

Earthquake Activity

City Distance Mag. Time & Date
Minimum magnitude displayed is 2.5.

Coastal Water Temperatures

Place Temperature

Stations

Nearby Weather Stations

Station Location Temp. Windchill Dew Point Humidity Wind Precip. Elev Updated Type